createdAt,value
2022-10-22T00:01:17.884Z,65.06
2022-10-22T00:03:45.857Z,65.12
2022-10-22T00:06:13.986Z,65.17
2022-10-22T00:08:41.728Z,65.13
2022-10-22T00:11:15.476Z,65.24
2022-10-22T00:13:44.280Z,65.33
2022-10-22T00:16:12.185Z,65.39
2022-10-22T00:18:40.566Z,65.56
2022-10-22T00:21:08.450Z,65.66
2022-10-22T00:23:36.373Z,65.99
2022-10-22T00:26:04.346Z,66.38
2022-10-22T00:28:32.272Z,66.20
2022-10-22T00:31:01.204Z,66.23
2022-10-22T00:33:29.775Z,66.38
2022-10-22T00:35:58.160Z,66.24
2022-10-22T00:38:26.123Z,66.21
2022-10-22T00:40:53.959Z,66.41
2022-10-22T00:43:22.195Z,66.42
2022-10-22T00:45:50.107Z,66.31
2022-10-22T00:48:27.315Z,66.47
2022-10-22T00:51:01.035Z,66.34
2022-10-22T00:53:34.670Z,66.51
2022-10-22T00:56:02.773Z,66.57
2022-10-22T00:58:35.003Z,66.70
2022-10-22T01:01:04.131Z,66.84
2022-10-22T01:03:32.948Z,67.10
2022-10-22T01:06:04.267Z,67.43
2022-10-22T01:08:34.993Z,67.60
2022-10-22T01:11:34.527Z,68.28
2022-10-22T01:14:25.272Z,68.41
2022-10-22T01:17:01.966Z,68.75
2022-10-22T01:19:44.679Z,69.09
2022-10-22T01:22:32.693Z,69.51
2022-10-22T01:25:35.894Z,69.82
2022-10-22T01:28:26.317Z,70.41
2022-10-22T01:30:57.803Z,71.25
2022-10-22T01:33:28.191Z,70.94
2022-10-22T01:35:57.580Z,71.22
2022-10-22T01:38:26.483Z,71.47
2022-10-22T01:40:54.673Z,71.14
2022-10-22T01:43:22.977Z,71.56
2022-10-22T01:45:56.417Z,71.87
2022-10-22T01:48:49.157Z,72.66
2022-10-22T01:51:32.066Z,72.17
2022-10-22T01:54:06.880Z,72.00
2022-10-22T01:57:04.689Z,72.12
2022-10-22T02:00:01.388Z,72.35
2022-10-22T02:02:35.963Z,72.46
2022-10-22T02:05:16.742Z,72.37
2022-10-22T02:07:49.521Z,72.21
2022-10-22T02:10:18.398Z,72.16
2022-10-22T02:12:50.418Z,72.41
2022-10-22T02:15:21.263Z,72.77
2022-10-22T02:17:49.817Z,73.41
2022-10-22T02:20:22.783Z,73.77
2022-10-22T02:22:50.764Z,73.32
2022-10-22T02:25:21.303Z,73.01
2022-10-22T02:28:02.888Z,72.82
2022-10-22T02:30:32.945Z,73.26
2022-10-22T02:33:11.973Z,73.71
2022-10-22T02:35:41.668Z,73.25
2022-10-22T02:38:10.926Z,73.02
2022-10-22T02:40:39.227Z,72.70
2022-10-22T02:43:07.239Z,72.59
2022-10-22T02:45:35.287Z,72.29
2022-10-22T02:48:05.003Z,72.05
2022-10-22T02:50:32.848Z,71.61
2022-10-22T02:53:00.585Z,71.30
2022-10-22T02:55:28.445Z,70.93
2022-10-22T02:57:56.284Z,69.00
2022-10-22T03:00:24.118Z,67.66
2022-10-22T03:02:52.273Z,66.74
2022-10-22T03:05:20.095Z,65.83
2022-10-22T03:07:47.882Z,64.24
2022-10-22T03:10:15.929Z,63.59
2022-10-22T03:12:43.792Z,62.11
2022-10-22T03:15:11.567Z,61.18
2022-10-22T03:17:39.492Z,61.04
2022-10-22T03:20:07.900Z,61.79
2022-10-22T03:22:39.341Z,61.12
2022-10-22T03:25:12.337Z,60.77
2022-10-22T03:27:42.109Z,61.12
2022-10-22T03:30:10.662Z,60.58
2022-10-22T03:32:38.756Z,60.96
2022-10-22T03:35:07.202Z,60.99
2022-10-22T03:37:36.852Z,61.10
2022-10-22T03:40:07.649Z,60.89
2022-10-22T03:42:35.448Z,60.27
2022-10-22T03:45:04.095Z,61.02
2022-10-22T03:47:31.985Z,61.15
2022-10-22T03:49:59.865Z,61.01
2022-10-22T03:52:28.075Z,60.67
2022-10-22T03:54:55.856Z,60.71
2022-10-22T03:57:23.549Z,60.53
2022-10-22T03:59:51.495Z,60.66
2022-10-22T04:02:19.438Z,60.62
2022-10-22T04:04:47.267Z,60.85
2022-10-22T04:07:15.155Z,60.93
2022-10-22T04:09:42.951Z,61.07
2022-10-22T04:12:10.766Z,61.01
2022-10-22T04:14:38.466Z,61.20
2022-10-22T04:17:06.280Z,60.91
2022-10-22T04:19:34.071Z,60.78
2022-10-22T04:22:01.798Z,60.50
2022-10-22T04:24:31.625Z,60.41
2022-10-22T04:26:59.898Z,60.26
2022-10-22T04:29:27.733Z,60.12
2022-10-22T04:31:55.469Z,60.28
2022-10-22T04:34:23.457Z,60.32
2022-10-22T04:36:51.155Z,60.56
2022-10-22T04:39:19.002Z,60.53
2022-10-22T04:41:46.792Z,60.61
2022-10-22T04:44:17.156Z,60.58
2022-10-22T04:46:45.939Z,60.59
2022-10-22T04:49:13.854Z,60.61
2022-10-22T04:51:41.801Z,60.59
2022-10-22T04:54:09.723Z,60.50
2022-10-22T04:56:37.918Z,60.55
2022-10-22T04:59:09.345Z,60.53
2022-10-22T05:01:42.929Z,60.70
2022-10-22T05:04:14.185Z,60.59
2022-10-22T05:06:42.092Z,60.73
2022-10-22T05:09:17.832Z,60.87
2022-10-22T05:11:49.869Z,60.92
2022-10-22T05:14:21.111Z,60.73
2022-10-22T05:16:49.753Z,60.66
2022-10-22T05:19:24.346Z,60.82
2022-10-22T05:21:54.177Z,60.88
2022-10-22T05:24:23.665Z,60.97
2022-10-22T05:26:58.043Z,60.91
2022-10-22T05:29:28.971Z,60.90
2022-10-22T05:31:58.103Z,61.09
2022-10-22T05:34:30.592Z,61.10
2022-10-22T05:37:00.787Z,61.32
2022-10-22T05:39:28.675Z,61.33
2022-10-22T05:41:57.083Z,61.39
2022-10-22T05:44:25.032Z,61.48
2022-10-22T05:46:52.912Z,61.44
2022-10-22T05:49:20.701Z,61.52
2022-10-22T05:51:48.445Z,61.44
2022-10-22T05:54:22.166Z,61.41
2022-10-22T05:56:50.069Z,61.57
2022-10-22T05:59:17.753Z,61.50
2022-10-22T06:01:45.695Z,61.27
2022-10-22T06:04:13.881Z,61.30
2022-10-22T06:06:50.295Z,61.07
2022-10-22T06:09:29.263Z,60.99
2022-10-22T06:11:58.203Z,60.79
2022-10-22T06:14:27.117Z,60.55
2022-10-22T06:16:55.909Z,60.35
2022-10-22T06:19:26.793Z,60.74
2022-10-22T06:21:54.600Z,60.87
2022-10-22T06:24:22.733Z,60.79
2022-10-22T06:26:52.058Z,60.67
2022-10-22T06:29:20.388Z,60.37
2022-10-22T06:31:49.132Z,60.17
2022-10-22T06:34:18.999Z,59.72
2022-10-22T06:36:47.368Z,59.78
2022-10-22T06:39:17.352Z,59.66
2022-10-22T06:41:45.775Z,59.32
2022-10-22T06:44:18.435Z,59.19
2022-10-22T06:46:49.225Z,59.12
2022-10-22T06:49:17.256Z,59.16
2022-10-22T06:51:45.208Z,59.19
2022-10-22T06:54:16.214Z,59.07
2022-10-22T06:56:44.025Z,58.92
2022-10-22T06:59:11.745Z,58.72
2022-10-22T07:01:39.771Z,58.67
2022-10-22T07:04:08.951Z,58.57
2022-10-22T07:06:36.965Z,58.36
2022-10-22T07:09:04.956Z,58.05
2022-10-22T07:11:44.729Z,58.18
2022-10-22T07:14:14.103Z,57.74
2022-10-22T07:16:46.865Z,57.26
2022-10-22T07:19:14.898Z,56.97
2022-10-22T07:21:42.659Z,56.93
2022-10-22T07:24:10.420Z,56.86
2022-10-22T07:26:38.213Z,56.97
2022-10-22T07:29:06.234Z,56.86
2022-10-22T07:31:34.050Z,56.89
2022-10-22T07:34:01.814Z,56.90
2022-10-22T07:36:29.556Z,56.78
2022-10-22T07:38:59.292Z,57.01
2022-10-22T07:41:28.873Z,57.32
2022-10-22T07:43:57.416Z,57.39
2022-10-22T07:46:26.358Z,57.80
2022-10-22T07:48:54.533Z,57.82
2022-10-22T07:51:22.542Z,57.80
2022-10-22T07:53:50.345Z,57.86
2022-10-22T07:56:18.173Z,57.86
2022-10-22T07:58:46.060Z,57.74
2022-10-22T08:01:13.924Z,57.60
2022-10-22T08:03:41.697Z,57.62
2022-10-22T08:06:12.990Z,57.31
2022-10-22T08:08:42.052Z,57.47
2022-10-22T08:11:10.100Z,57.24
2022-10-22T08:13:42.754Z,57.02
2022-10-22T08:16:13.601Z,56.95
2022-10-22T08:18:41.893Z,56.69
2022-10-22T08:21:10.618Z,56.51
2022-10-22T08:23:38.719Z,56.52
2022-10-22T08:26:06.595Z,56.45
2022-10-22T08:28:37.128Z,56.72
2022-10-22T08:31:07.561Z,56.66
2022-10-22T08:33:35.258Z,56.88
2022-10-22T08:36:03.143Z,56.88
2022-10-22T08:38:35.296Z,56.63
2022-10-22T08:41:12.076Z,56.54
2022-10-22T08:44:18.572Z,56.76
2022-10-22T08:46:51.036Z,56.67
2022-10-22T08:49:35.107Z,56.34
2022-10-22T08:52:05.579Z,56.45
2022-10-22T08:54:39.240Z,56.53
2022-10-22T08:57:09.795Z,56.50
2022-10-22T08:59:50.519Z,56.53
2022-10-22T09:02:56.831Z,56.04
2022-10-22T09:05:48.435Z,56.00
2022-10-22T09:08:19.484Z,55.79
2022-10-22T09:11:09.275Z,55.39
2022-10-22T09:13:37.825Z,55.46
2022-10-22T09:16:16.404Z,55.08
2022-10-22T09:19:23.634Z,54.87
2022-10-22T09:22:19.430Z,55.06
2022-10-22T09:24:53.348Z,55.29
2022-10-22T09:27:28.072Z,55.19
2022-10-22T09:29:56.279Z,55.73
2022-10-22T09:32:25.301Z,55.58
2022-10-22T09:34:57.235Z,55.77
2022-10-22T09:37:28.348Z,56.28
2022-10-22T09:39:59.113Z,55.34
2022-10-22T09:42:26.935Z,55.26
2022-10-22T09:44:59.697Z,55.80
2022-10-22T09:47:42.540Z,55.36
2022-10-22T09:50:50.644Z,55.12
2022-10-22T09:53:35.426Z,54.29
2022-10-22T09:56:17.375Z,54.64
2022-10-22T09:58:49.393Z,54.88
2022-10-22T10:01:21.936Z,54.74
2022-10-22T10:03:50.306Z,55.18
2022-10-22T10:06:20.054Z,55.69
2022-10-22T10:08:48.913Z,54.98
2022-10-22T10:11:29.218Z,54.95
2022-10-22T10:14:16.160Z,55.92
2022-10-22T10:17:12.014Z,55.76
2022-10-22T10:20:03.767Z,54.88
2022-10-22T10:22:47.319Z,55.70
2022-10-22T10:25:43.021Z,55.65
2022-10-22T10:28:10.658Z,54.88
2022-10-22T10:30:50.733Z,55.22
2022-10-22T10:33:53.740Z,55.21
2022-10-22T10:36:24.292Z,55.28
2022-10-22T10:39:06.309Z,55.48
2022-10-22T10:41:50.065Z,55.46
2022-10-22T10:44:36.649Z,55.59
2022-10-22T10:47:50.612Z,54.96
2022-10-22T10:50:32.448Z,56.17
2022-10-22T10:53:52.548Z,55.96
2022-10-22T10:56:39.307Z,56.36
2022-10-22T10:59:23.474Z,56.32
2022-10-22T11:02:08.165Z,56.46
2022-10-22T11:05:02.423Z,56.54
2022-10-22T11:07:56.149Z,55.92
2022-10-22T11:10:41.618Z,55.17
2022-10-22T11:13:37.093Z,55.76
2022-10-22T11:16:26.168Z,55.85
2022-10-22T11:19:03.418Z,55.32
2022-10-22T11:21:49.550Z,55.11
2022-10-22T11:24:26.112Z,55.20
2022-10-22T11:27:02.872Z,55.68
2022-10-22T11:29:39.201Z,55.15
2022-10-22T11:32:14.305Z,55.14
2022-10-22T11:34:48.614Z,55.13
2022-10-22T11:37:17.251Z,54.86
2022-10-22T11:39:54.400Z,55.20
2022-10-22T11:42:33.241Z,55.35
2022-10-22T11:45:03.042Z,55.19
2022-10-22T11:47:42.153Z,55.22
2022-10-22T11:50:23.027Z,55.48
2022-10-22T11:52:53.562Z,55.80
2022-10-22T11:55:33.323Z,55.65
2022-10-22T11:58:03.042Z,55.45
2022-10-22T12:00:39.724Z,55.71
2022-10-22T12:03:33.187Z,55.50
2022-10-22T12:06:13.411Z,55.55
2022-10-22T12:08:56.773Z,55.37
2022-10-22T12:11:41.422Z,55.61
2022-10-22T12:14:23.067Z,55.93
2022-10-22T12:16:57.446Z,56.19
2022-10-22T12:19:28.725Z,56.14
2022-10-22T12:22:11.597Z,56.23
2022-10-22T12:24:46.734Z,56.33
2022-10-22T12:27:33.294Z,56.58
2022-10-22T12:30:02.597Z,57.01
2022-10-22T12:32:41.164Z,56.85
2022-10-22T12:35:17.607Z,56.93
2022-10-22T12:37:48.963Z,57.36
2022-10-22T12:40:22.086Z,57.12
2022-10-22T12:42:52.491Z,57.36
2022-10-22T12:45:21.223Z,57.07
2022-10-22T12:47:51.494Z,57.07
2022-10-22T12:50:23.206Z,57.47
2022-10-22T12:52:54.362Z,57.64
2022-10-22T12:55:25.985Z,57.49
2022-10-22T12:57:54.007Z,57.76
2022-10-22T13:00:28.395Z,57.92
2022-10-22T13:03:00.313Z,58.10
2022-10-22T13:05:34.190Z,58.33
2022-10-22T13:08:16.963Z,58.42
2022-10-22T13:10:53.273Z,57.97
2022-10-22T13:13:45.571Z,57.93
2022-10-22T13:16:19.414Z,57.99
2022-10-22T13:18:48.406Z,57.90
2022-10-22T13:21:38.762Z,57.74
2022-10-22T13:24:24.173Z,57.55
2022-10-22T13:26:54.375Z,57.40
2022-10-22T13:29:24.146Z,57.40
2022-10-22T13:31:53.251Z,56.88
2022-10-22T13:34:24.130Z,56.97
2022-10-22T13:36:52.518Z,56.95
2022-10-22T13:39:22.846Z,56.68
2022-10-22T13:41:51.681Z,56.67
2022-10-22T13:44:19.896Z,56.90
2022-10-22T13:46:48.569Z,57.16
2022-10-22T13:49:20.446Z,57.21
2022-10-22T13:51:48.282Z,57.13
2022-10-22T13:54:19.736Z,56.74
2022-10-22T13:56:47.594Z,56.87
2022-10-22T13:59:17.334Z,56.95
2022-10-22T14:01:47.735Z,57.06
2022-10-22T14:04:15.626Z,56.94
2022-10-22T14:06:43.920Z,56.89
2022-10-22T14:09:15.894Z,56.57
2022-10-22T14:11:43.845Z,56.10
2022-10-22T14:14:17.273Z,55.57
2022-10-22T14:16:45.184Z,55.67
2022-10-22T14:19:16.629Z,55.88
2022-10-22T14:21:44.670Z,56.01
2022-10-22T14:24:13.403Z,56.13
2022-10-22T14:26:41.550Z,56.06
2022-10-22T14:29:10.614Z,56.09
2022-10-22T14:31:44.583Z,56.21
2022-10-22T14:34:15.987Z,56.25
2022-10-22T14:36:44.321Z,56.20
2022-10-22T14:39:13.004Z,56.26
2022-10-22T14:41:41.875Z,56.31
2022-10-22T14:44:14.330Z,56.40
2022-10-22T14:46:49.137Z,56.22
2022-10-22T14:49:16.946Z,56.25
2022-10-22T14:51:44.776Z,56.28
2022-10-22T14:54:12.621Z,56.32
2022-10-22T14:56:40.392Z,56.55
2022-10-22T14:59:08.139Z,56.94
2022-10-22T15:01:35.952Z,57.20
2022-10-22T15:04:03.830Z,57.17
2022-10-22T15:06:31.702Z,57.06
2022-10-22T15:09:02.037Z,57.23
2022-10-22T15:11:29.934Z,57.29
2022-10-22T15:13:57.729Z,57.27
2022-10-22T15:16:26.056Z,57.41
2022-10-22T15:18:53.997Z,57.58
2022-10-22T15:21:23.232Z,57.53
2022-10-22T15:23:51.148Z,57.78
2022-10-22T15:26:19.822Z,57.90
2022-10-22T15:28:47.734Z,57.79
2022-10-22T15:31:15.838Z,57.77
2022-10-22T15:33:43.832Z,57.80
2022-10-22T15:36:16.357Z,57.36
2022-10-22T15:38:44.231Z,57.47
2022-10-22T15:41:13.355Z,57.36
2022-10-22T15:43:41.228Z,57.43
2022-10-22T15:46:13.484Z,57.41
2022-10-22T15:48:41.889Z,57.39
2022-10-22T15:51:18.634Z,57.42
2022-10-22T15:53:52.273Z,57.10
2022-10-22T15:56:20.838Z,57.17
2022-10-22T15:58:53.297Z,57.28
2022-10-22T16:01:21.338Z,57.29
2022-10-22T16:03:53.473Z,57.27
2022-10-22T16:06:21.421Z,57.31
2022-10-22T16:08:49.209Z,57.49
2022-10-22T16:11:17.119Z,57.48
2022-10-22T16:13:44.877Z,57.32
2022-10-22T16:16:12.662Z,57.40
2022-10-22T16:18:40.395Z,57.43
2022-10-22T16:21:12.618Z,57.37
2022-10-22T16:23:41.688Z,57.50
2022-10-22T16:26:09.601Z,57.69
2022-10-22T16:28:39.979Z,57.82
2022-10-22T16:31:10.832Z,57.77
2022-10-22T16:33:42.938Z,57.73
2022-10-22T16:36:14.915Z,57.74
2022-10-22T16:38:42.637Z,58.02
2022-10-22T16:41:16.635Z,57.93
2022-10-22T16:43:48.403Z,58.06
2022-10-22T16:46:18.692Z,58.04
2022-10-22T16:48:51.721Z,58.25
2022-10-22T16:51:22.669Z,58.43
2022-10-22T16:53:55.078Z,58.51
2022-10-22T16:56:23.316Z,58.61
2022-10-22T16:58:53.803Z,58.70
2022-10-22T17:01:25.850Z,58.66
2022-10-22T17:03:56.424Z,58.75
2022-10-22T17:06:25.259Z,58.73
2022-10-22T17:08:53.452Z,58.87
2022-10-22T17:11:22.944Z,58.74
2022-10-22T17:13:53.460Z,58.43
2022-10-22T17:16:23.619Z,58.11
2022-10-22T17:18:53.535Z,57.79
2022-10-22T17:21:22.327Z,57.85
2022-10-22T17:23:55.032Z,57.65
2022-10-22T17:26:23.196Z,57.51
2022-10-22T17:28:50.986Z,57.38
2022-10-22T17:31:28.058Z,57.29
2022-10-22T17:33:57.137Z,57.12
2022-10-22T17:36:28.353Z,57.21
2022-10-22T17:39:02.185Z,57.30
2022-10-22T17:41:32.582Z,57.12
2022-10-22T17:44:03.292Z,57.19
2022-10-22T17:46:32.465Z,57.04
2022-10-22T17:49:07.094Z,57.01
2022-10-22T17:51:35.116Z,57.10
2022-10-22T17:54:05.980Z,57.20
2022-10-22T17:56:37.676Z,57.16
2022-10-22T17:59:06.065Z,57.24
2022-10-22T18:01:35.834Z,57.26
2022-10-22T18:04:06.269Z,57.38
2022-10-22T18:06:34.664Z,57.53
2022-10-22T18:09:08.394Z,57.65
2022-10-22T18:11:39.076Z,57.62
2022-10-22T18:14:07.033Z,57.60
2022-10-22T18:16:34.756Z,57.69
2022-10-22T18:19:02.720Z,57.79
2022-10-22T18:21:30.645Z,58.00
2022-10-22T18:23:59.448Z,58.19
2022-10-22T18:26:27.378Z,58.60
2022-10-22T18:28:57.504Z,59.18
2022-10-22T18:31:27.044Z,59.37
2022-10-22T18:33:55.772Z,59.65
2022-10-22T18:36:26.191Z,60.12
2022-10-22T18:38:59.240Z,60.50
2022-10-22T18:41:28.303Z,61.07
2022-10-22T18:44:01.179Z,61.26
2022-10-22T18:46:30.339Z,61.93
2022-10-22T18:48:59.012Z,62.37
2022-10-22T18:51:32.631Z,62.73
2022-10-22T18:54:11.236Z,63.04
2022-10-22T18:56:46.394Z,63.54
2022-10-22T18:59:20.207Z,64.29
2022-10-22T19:01:48.845Z,65.37
2022-10-22T19:04:16.858Z,66.77
2022-10-22T19:06:45.969Z,68.29
2022-10-22T19:09:15.446Z,70.58
2022-10-22T19:11:47.190Z,72.12
2022-10-22T19:14:15.192Z,73.83
2022-10-22T19:16:42.967Z,75.15
2022-10-22T19:19:11.447Z,76.62
2022-10-22T19:21:39.424Z,77.61
2022-10-22T19:24:07.316Z,79.08
2022-10-22T19:26:35.081Z,80.13
2022-10-22T19:29:03.611Z,80.52
2022-10-22T19:31:31.773Z,81.51
2022-10-22T19:34:02.741Z,82.31
2022-10-22T19:36:32.669Z,83.07
2022-10-22T19:39:01.814Z,83.40
2022-10-22T19:41:31.384Z,84.85
2022-10-22T19:44:00.667Z,85.77
2022-10-22T19:46:30.083Z,85.98
2022-10-22T19:48:58.285Z,87.14
2022-10-22T19:51:29.901Z,87.89
2022-10-22T19:54:00.239Z,88.12
2022-10-22T19:56:29.098Z,88.73
2022-10-22T19:58:57.748Z,89.39
2022-10-22T20:01:26.397Z,89.59
2022-10-22T20:03:54.656Z,89.79
2022-10-22T20:06:24.065Z,89.88
2022-10-22T20:08:55.229Z,89.85
2022-10-22T20:11:27.774Z,90.01
2022-10-22T20:13:56.712Z,90.46
2022-10-22T20:16:28.586Z,90.64
2022-10-22T20:19:01.804Z,90.72
2022-10-22T20:21:30.477Z,91.30
2022-10-22T20:23:59.038Z,91.54
2022-10-22T20:26:28.352Z,91.70
2022-10-22T20:28:57.553Z,91.28
2022-10-22T20:31:28.574Z,91.74
2022-10-22T20:33:58.779Z,92.31
2022-10-22T20:36:28.301Z,92.31
2022-10-22T20:39:07.395Z,92.83
2022-10-22T20:41:37.914Z,92.78
2022-10-22T20:44:07.441Z,92.98
2022-10-22T20:46:35.349Z,93.06
2022-10-22T20:49:09.990Z,92.77
2022-10-22T20:51:38.106Z,93.15
2022-10-22T20:54:07.634Z,92.27
2022-10-22T20:56:37.964Z,91.22
2022-10-22T20:59:08.484Z,91.01
2022-10-22T21:01:37.814Z,91.05
2022-10-22T21:04:06.630Z,91.41
2022-10-22T21:06:38.011Z,92.32
2022-10-22T21:09:07.766Z,91.56
2022-10-22T21:11:37.250Z,91.25
2022-10-22T21:14:06.896Z,90.70
2022-10-22T21:16:35.438Z,91.63
2022-10-22T21:19:03.194Z,91.44
2022-10-22T21:21:31.016Z,91.45
2022-10-22T21:23:58.732Z,91.07
2022-10-22T21:26:26.654Z,91.57
2022-10-22T21:28:54.342Z,91.84
2022-10-22T21:31:24.158Z,91.47
2022-10-22T21:33:53.461Z,91.26
2022-10-22T21:36:23.150Z,90.82
2022-10-22T21:38:52.276Z,90.88
2022-10-22T21:41:23.140Z,90.40
2022-10-22T21:43:51.311Z,90.28
2022-10-22T21:46:25.481Z,91.04
2022-10-22T21:48:59.309Z,90.76
2022-10-22T21:51:27.469Z,90.75
2022-10-22T21:53:55.350Z,90.96
2022-10-22T21:56:26.119Z,91.18
2022-10-22T21:58:54.631Z,92.05
2022-10-22T22:01:23.117Z,92.41
2022-10-22T22:03:52.446Z,91.80
2022-10-22T22:06:23.178Z,91.39
2022-10-22T22:08:53.750Z,91.53
2022-10-22T22:11:26.895Z,92.32
2022-10-22T22:13:56.107Z,92.44
2022-10-22T22:16:28.452Z,92.57
2022-10-22T22:18:59.040Z,92.63
2022-10-22T22:21:27.547Z,92.64
2022-10-22T22:23:56.676Z,92.99
2022-10-22T22:26:29.559Z,93.84
2022-10-22T22:28:59.679Z,92.96
2022-10-22T22:31:29.073Z,92.82
2022-10-22T22:34:04.220Z,92.39
2022-10-22T22:36:37.962Z,92.56
2022-10-22T22:39:08.656Z,93.46
2022-10-22T22:41:36.467Z,93.49
2022-10-22T22:44:04.317Z,93.23
2022-10-22T22:46:32.583Z,93.02
2022-10-22T22:49:00.839Z,93.12
2022-10-22T22:51:28.645Z,93.16
2022-10-22T22:54:00.388Z,93.26
2022-10-22T22:56:30.074Z,93.26
2022-10-22T22:58:58.444Z,93.21
2022-10-22T23:01:31.216Z,92.89
2022-10-22T23:04:11.683Z,92.86
2022-10-22T23:06:39.932Z,93.28
2022-10-22T23:09:10.026Z,93.34
2022-10-22T23:11:39.242Z,93.39
2022-10-22T23:14:08.449Z,93.59
2022-10-22T23:16:38.110Z,93.68
2022-10-22T23:19:06.372Z,93.62
2022-10-22T23:21:37.572Z,93.68
2022-10-22T23:24:09.184Z,93.80
2022-10-22T23:26:41.333Z,93.66
2022-10-22T23:29:14.333Z,93.54
2022-10-22T23:31:43.223Z,93.39
2022-10-22T23:34:12.801Z,93.51
2022-10-22T23:36:40.819Z,93.76
2022-10-22T23:39:12.066Z,94.00
2022-10-22T23:41:39.813Z,94.03
2022-10-22T23:44:09.652Z,93.98
2022-10-22T23:46:38.682Z,94.02
2022-10-22T23:49:07.751Z,94.06
2022-10-22T23:51:35.970Z,94.15
2022-10-22T23:54:07.287Z,94.13
2022-10-22T23:56:35.799Z,94.17
2022-10-22T23:59:04.591Z,94.51
